sensor_id;sensor_type;location;lat;lon;timestamp;temperature;humidity
3528;DHT22;1778;47.966;7.854;2023-02-26T00:00:55;3.10;99.90
3528;DHT22;1778;47.966;7.854;2023-02-26T00:01:57;3.00;99.90
3528;DHT22;1778;47.966;7.854;2023-02-26T00:03:02;3.00;99.90
3528;DHT22;1778;47.966;7.854;2023-02-26T00:04:05;2.90;99.90
3528;DHT22;1778;47.966;7.854;2023-02-26T00:05:07;2.90;99.90
3528;DHT22;1778;47.966;7.854;2023-02-26T00:06:09;2.90;99.90
3528;DHT22;1778;47.966;7.854;2023-02-26T00:07:11;2.90;99.90
3528;DHT22;1778;47.966;7.854;2023-02-26T00:08:13;3.00;99.90
3528;DHT22;1778;47.966;7.854;2023-02-26T00:09:14;3.00;99.90
3528;DHT22;1778;47.966;7.854;2023-02-26T00:10:15;3.00;99.90
3528;DHT22;1778;47.966;7.854;2023-02-26T00:11:17;3.00;99.90
3528;DHT22;1778;47.966;7.854;2023-02-26T00:12:19;3.10;99.90
3528;DHT22;1778;47.966;7.854;2023-02-26T00:13:20;3.10;99.90
3528;DHT22;1778;47.966;7.854;2023-02-26T00:14:23;3.00;99.90
3528;DHT22;1778;47.966;7.854;2023-02-26T00:15:25;3.00;99.90
3528;DHT22;1778;47.966;7.854;2023-02-26T00:16:29;3.00;99.90
3528;DHT22;1778;47.966;7.854;2023-02-26T00:18:38;3.00;99.90
3528;DHT22;1778;47.966;7.854;2023-02-26T00:19:39;3.00;99.90
3528;DHT22;1778;47.966;7.854;2023-02-26T00:20:41;3.10;99.90
3528;DHT22;1778;47.966;7.854;2023-02-26T00:21:46;3.10;99.90
3528;DHT22;1778;47.966;7.854;2023-02-26T00:22:48;3.10;99.90
3528;DHT22;1778;47.966;7.854;2023-02-26T00:23:50;3.20;99.90
3528;DHT22;1778;47.966;7.854;2023-02-26T00:24:52;3.20;99.90
3528;DHT22;1778;47.966;7.854;2023-02-26T00:25:54;3.20;99.90
3528;DHT22;1778;47.966;7.854;2023-02-26T00:26:57;3.20;99.90
3528;DHT22;1778;47.966;7.854;2023-02-26T00:28:00;3.20;99.90
3528;DHT22;1778;47.966;7.854;2023-02-26T00:29:02;3.10;99.90
3528;DHT22;1778;47.966;7.854;2023-02-26T00:30:06;3.20;99.90
3528;DHT22;1778;47.966;7.854;2023-02-26T00:31:08;3.20;99.90
3528;DHT22;1778;47.966;7.854;2023-02-26T00:32:11;3.30;99.90
3528;DHT22;1778;47.966;7.854;2023-02-26T00:33:13;3.30;99.90
3528;DHT22;1778;47.966;7.854;2023-02-26T00:34:15;3.30;99.90
3528;DHT22;1778;47.966;7.854;2023-02-26T00:35:17;3.30;99.90
3528;DHT22;1778;47.966;7.854;2023-02-26T00:36:34;3.30;99.90
3528;DHT22;1778;47.966;7.854;2023-02-26T00:37:51;3.30;99.90
3528;DHT22;1778;47.966;7.854;2023-02-26T00:39:04;3.30;99.90
3528;DHT22;1778;47.966;7.854;2023-02-26T00:40:20;3.30;99.90
3528;DHT22;1778;47.966;7.854;2023-02-26T00:41:23;3.20;99.90
3528;DHT22;1778;47.966;7.854;2023-02-26T00:42:25;3.20;99.90
3528;DHT22;1778;47.966;7.854;2023-02-26T00:43:27;3.30;99.90
3528;DHT22;1778;47.966;7.854;2023-02-26T00:44:29;3.30;99.90
3528;DHT22;1778;47.966;7.854;2023-02-26T00:45:31;3.30;99.90
3528;DHT22;1778;47.966;7.854;2023-02-26T00:46:41;3.20;99.90
3528;DHT22;1778;47.966;7.854;2023-02-26T00:47:54;3.20;99.90
3528;DHT22;1778;47.966;7.854;2023-02-26T00:49:15;3.10;99.90
3528;DHT22;1778;47.966;7.854;2023-02-26T00:50:24;3.00;99.90
3528;DHT22;1778;47.966;7.854;2023-02-26T00:51:55;3.10;99.90
3528;DHT22;1778;47.966;7.854;2023-02-26T00:53:24;3.00;99.90
3528;DHT22;1778;47.966;7.854;2023-02-26T00:54:29;2.90;99.90
3528;DHT22;1778;47.966;7.854;2023-02-26T00:55:30;2.90;99.90
3528;DHT22;1778;47.966;7.854;2023-02-26T00:56:32;2.90;99.90
3528;DHT22;1778;47.966;7.854;2023-02-26T00:57:33;2.90;99.90
3528;DHT22;1778;47.966;7.854;2023-02-26T00:58:35;2.90;99.90
3528;DHT22;1778;47.966;7.854;2023-02-26T00:59:37;2.90;99.90
3528;DHT22;1778;47.966;7.854;2023-02-26T01:00:39;2.90;99.90
3528;DHT22;1778;47.966;7.854;2023-02-26T01:01:41;2.80;99.90
3528;DHT22;1778;47.966;7.854;2023-02-26T01:02:43;2.80;99.90
3528;DHT22;1778;47.966;7.854;2023-02-26T01:03:46;2.80;99.90
3528;DHT22;1778;47.966;7.854;2023-02-26T01:04:48;2.70;99.90
3528;DHT22;1778;47.966;7.854;2023-02-26T01:05:50;2.70;99.90
3528;DHT22;1778;47.966;7.854;2023-02-26T01:06:54;2.60;99.90
3528;DHT22;1778;47.966;7.854;2023-02-26T01:09:26;2.70;99.90
3528;DHT22;1778;47.966;7.854;2023-02-26T01:10:29;2.70;99.90
3528;DHT22;1778;47.966;7.854;2023-02-26T01:11:35;2.80;99.90
3528;DHT22;1778;47.966;7.854;2023-02-26T01:12:38;2.80;99.90
3528;DHT22;1778;47.966;7.854;2023-02-26T01:13:40;2.70;99.90
3528;DHT22;1778;47.966;7.854;2023-02-26T01:14:43;2.70;99.90
3528;DHT22;1778;47.966;7.854;2023-02-26T01:15:48;2.60;99.90
3528;DHT22;1778;47.966;7.854;2023-02-26T01:18:26;2.60;99.90
3528;DHT22;1778;47.966;7.854;2023-02-26T01:19:48;2.50;99.90
3528;DHT22;1778;47.966;7.854;2023-02-26T01:20:56;2.50;99.90
3528;DHT22;1778;47.966;7.854;2023-02-26T01:22:26;2.50;99.90
3528;DHT22;1778;47.966;7.854;2023-02-26T01:23:34;2.30;99.90
3528;DHT22;1778;47.966;7.854;2023-02-26T01:24:37;2.30;99.90
3528;DHT22;1778;47.966;7.854;2023-02-26T01:26:46;2.10;99.90
3528;DHT22;1778;47.966;7.854;2023-02-26T01:27:51;2.10;99.90
3528;DHT22;1778;47.966;7.854;2023-02-26T01:28:53;2.10;99.90
3528;DHT22;1778;47.966;7.854;2023-02-26T01:29:55;2.00;99.90
3528;DHT22;1778;47.966;7.854;2023-02-26T01:31:00;2.00;99.90
3528;DHT22;1778;47.966;7.854;2023-02-26T01:32:24;1.90;99.90
3528;DHT22;1778;47.966;7.854;2023-02-26T01:33:39;1.90;99.90
3528;DHT22;1778;47.966;7.854;2023-02-26T01:34:51;1.80;99.90
3528;DHT22;1778;47.966;7.854;2023-02-26T01:36:11;1.70;99.90
3528;DHT22;1778;47.966;7.854;2023-02-26T01:37:32;1.60;99.90
3528;DHT22;1778;47.966;7.854;2023-02-26T01:41:23;1.50;99.90
3528;DHT22;1778;47.966;7.854;2023-02-26T01:42:30;1.40;99.90
3528;DHT22;1778;47.966;7.854;2023-02-26T01:44:58;1.60;99.90
3528;DHT22;1778;47.966;7.854;2023-02-26T01:46:21;1.50;99.90
3528;DHT22;1778;47.966;7.854;2023-02-26T01:47:35;1.50;99.90
3528;DHT22;1778;47.966;7.854;2023-02-26T01:48:52;1.50;99.90
3528;DHT22;1778;47.966;7.854;2023-02-26T01:49:54;1.40;99.90
3528;DHT22;1778;47.966;7.854;2023-02-26T01:50:57;1.40;99.90
3528;DHT22;1778;47.966;7.854;2023-02-26T01:52:04;1.40;99.90
3528;DHT22;1778;47.966;7.854;2023-02-26T01:53:19;1.40;99.90
3528;DHT22;1778;47.966;7.854;2023-02-26T01:54:34;1.30;99.90
3528;DHT22;1778;47.966;7.854;2023-02-26T01:55:36;1.30;99.90
3528;DHT22;1778;47.966;7.854;2023-02-26T01:56:38;1.20;99.90
3528;DHT22;1778;47.966;7.854;2023-02-26T01:57:40;1.20;99.90
3528;DHT22;1778;47.966;7.854;2023-02-26T01:58:42;1.20;99.90
3528;DHT22;1778;47.966;7.854;2023-02-26T01:59:46;1.10;99.90
3528;DHT22;1778;47.966;7.854;2023-02-26T02:00:48;1.10;99.90
3528;DHT22;1778;47.966;7.854;2023-02-26T02:01:55;1.10;99.90
3528;DHT22;1778;47.966;7.854;2023-02-26T02:02:57;1.20;99.90
3528;DHT22;1778;47.966;7.854;2023-02-26T02:03:59;1.20;99.90
3528;DHT22;1778;47.966;7.854;2023-02-26T02:05:06;1.10;99.90
3528;DHT22;1778;47.966;7.854;2023-02-26T02:06:18;1.10;99.90
3528;DHT22;1778;47.966;7.854;2023-02-26T02:07:21;1.10;99.90
3528;DHT22;1778;47.966;7.854;2023-02-26T02:08:22;0.90;99.90
3528;DHT22;1778;47.966;7.854;2023-02-26T02:09:25;0.90;99.90
3528;DHT22;1778;47.966;7.854;2023-02-26T02:10:27;0.80;99.90
3528;DHT22;1778;47.966;7.854;2023-02-26T02:11:29;0.80;99.90
3528;DHT22;1778;47.966;7.854;2023-02-26T02:12:39;0.90;99.90
3528;DHT22;1778;47.966;7.854;2023-02-26T02:15:10;0.80;99.90
3528;DHT22;1778;47.966;7.854;2023-02-26T02:17:59;0.70;99.90
3528;DHT22;1778;47.966;7.854;2023-02-26T02:22:18;0.60;99.90
3528;DHT22;1778;47.966;7.854;2023-02-26T02:27:02;0.60;99.90
3528;DHT22;1778;47.966;7.854;2023-02-26T02:33:17;0.50;99.90
3528;DHT22;1778;47.966;7.854;2023-02-26T02:36:08;0.50;99.90
3528;DHT22;1778;47.966;7.854;2023-02-26T02:38:24;0.50;99.90
3528;DHT22;1778;47.966;7.854;2023-02-26T02:39:37;0.50;99.90
3528;DHT22;1778;47.966;7.854;2023-02-26T02:40:42;0.50;99.90
3528;DHT22;1778;47.966;7.854;2023-02-26T02:41:54;0.50;99.90
3528;DHT22;1778;47.966;7.854;2023-02-26T02:44:07;0.50;99.90
3528;DHT22;1778;47.966;7.854;2023-02-26T02:46:43;0.50;99.90
3528;DHT22;1778;47.966;7.854;2023-02-26T02:47:49;0.50;99.90
3528;DHT22;1778;47.966;7.854;2023-02-26T02:51:13;0.50;99.90
3528;DHT22;1778;47.966;7.854;2023-02-26T02:52:25;0.60;99.90
3528;DHT22;1778;47.966;7.854;2023-02-26T02:55:06;0.50;99.90
3528;DHT22;1778;47.966;7.854;2023-02-26T02:57:47;0.50;99.90
3528;DHT22;1778;47.966;7.854;2023-02-26T02:59:19;0.50;99.90
3528;DHT22;1778;47.966;7.854;2023-02-26T03:00:23;0.40;99.90
3528;DHT22;1778;47.966;7.854;2023-02-26T03:01:27;0.40;99.90
3528;DHT22;1778;47.966;7.854;2023-02-26T03:02:58;0.50;99.90
3528;DHT22;1778;47.966;7.854;2023-02-26T03:04:03;0.50;99.90
3528;DHT22;1778;47.966;7.854;2023-02-26T03:05:06;0.50;99.90
3528;DHT22;1778;47.966;7.854;2023-02-26T03:06:08;0.50;99.90
3528;DHT22;1778;47.966;7.854;2023-02-26T03:07:09;0.50;99.90
3528;DHT22;1778;47.966;7.854;2023-02-26T03:08:13;0.50;99.90
3528;DHT22;1778;47.966;7.854;2023-02-26T03:09:19;0.50;99.90
3528;DHT22;1778;47.966;7.854;2023-02-26T03:10:21;0.50;99.90
3528;DHT22;1778;47.966;7.854;2023-02-26T03:11:23;0.60;99.90
3528;DHT22;1778;47.966;7.854;2023-02-26T03:15:55;0.70;99.90
3528;DHT22;1778;47.966;7.854;2023-02-26T03:20:16;0.70;99.90
3528;DHT22;1778;47.966;7.854;2023-02-26T03:21:22;0.60;99.90
3528;DHT22;1778;47.966;7.854;2023-02-26T03:22:34;0.70;99.90
3528;DHT22;1778;47.966;7.854;2023-02-26T03:24:05;0.70;99.90
3528;DHT22;1778;47.966;7.854;2023-02-26T03:25:17;0.70;99.90
3528;DHT22;1778;47.966;7.854;2023-02-26T03:26:39;0.60;99.90
3528;DHT22;1778;47.966;7.854;2023-02-26T03:28:02;0.70;99.90
3528;DHT22;1778;47.966;7.854;2023-02-26T03:29:25;0.70;99.90
3528;DHT22;1778;47.966;7.854;2023-02-26T03:30:36;0.70;99.90
3528;DHT22;1778;47.966;7.854;2023-02-26T03:31:57;0.70;99.90
3528;DHT22;1778;47.966;7.854;2023-02-26T03:34:25;0.70;99.90
3528;DHT22;1778;47.966;7.854;2023-02-26T03:36:35;0.60;99.90
3528;DHT22;1778;47.966;7.854;2023-02-26T03:38:08;0.70;99.90
3528;DHT22;1778;47.966;7.854;2023-02-26T03:39:14;0.60;99.90
3528;DHT22;1778;47.966;7.854;2023-02-26T03:40:47;0.60;99.90
3528;DHT22;1778;47.966;7.854;2023-02-26T03:42:05;0.60;99.90
3528;DHT22;1778;47.966;7.854;2023-02-26T03:43:22;0.70;99.90
3528;DHT22;1778;47.966;7.854;2023-02-26T03:44:33;0.70;99.90
3528;DHT22;1778;47.966;7.854;2023-02-26T03:45:37;0.70;99.90
3528;DHT22;1778;47.966;7.854;2023-02-26T03:46:43;0.70;99.90
3528;DHT22;1778;47.966;7.854;2023-02-26T03:47:49;0.70;99.90
3528;DHT22;1778;47.966;7.854;2023-02-26T03:48:56;0.70;99.90
3528;DHT22;1778;47.966;7.854;2023-02-26T03:50:09;0.80;99.90
3528;DHT22;1778;47.966;7.854;2023-02-26T03:51:23;0.80;99.90
3528;DHT22;1778;47.966;7.854;2023-02-26T03:53:00;0.80;99.90
3528;DHT22;1778;47.966;7.854;2023-02-26T03:54:30;0.80;99.90
3528;DHT22;1778;47.966;7.854;2023-02-26T03:56:04;0.80;99.90
3528;DHT22;1778;47.966;7.854;2023-02-26T03:57:27;0.80;99.90
3528;DHT22;1778;47.966;7.854;2023-02-26T03:58:41;0.80;99.90
3528;DHT22;1778;47.966;7.854;2023-02-26T04:00:07;0.80;99.90
3528;DHT22;1778;47.966;7.854;2023-02-26T04:01:32;0.70;99.90
3528;DHT22;1778;47.966;7.854;2023-02-26T04:02:44;0.80;99.90
3528;DHT22;1778;47.966;7.854;2023-02-26T04:04:00;0.70;99.90
3528;DHT22;1778;47.966;7.854;2023-02-26T04:05:12;0.80;99.90
3528;DHT22;1778;47.966;7.854;2023-02-26T04:06:16;0.80;99.90
3528;DHT22;1778;47.966;7.854;2023-02-26T04:07:19;0.70;99.90
3528;DHT22;1778;47.966;7.854;2023-02-26T04:08:22;0.70;99.90
3528;DHT22;1778;47.966;7.854;2023-02-26T04:09:24;0.70;99.90
3528;DHT22;1778;47.966;7.854;2023-02-26T04:10:46;0.70;99.90
3528;DHT22;1778;47.966;7.854;2023-02-26T04:11:50;0.70;99.90
3528;DHT22;1778;47.966;7.854;2023-02-26T04:12:52;0.70;99.90
3528;DHT22;1778;47.966;7.854;2023-02-26T04:13:53;0.70;99.90
3528;DHT22;1778;47.966;7.854;2023-02-26T04:14:56;0.70;99.90
3528;DHT22;1778;47.966;7.854;2023-02-26T04:15:59;0.70;99.90
3528;DHT22;1778;47.966;7.854;2023-02-26T04:17:00;0.60;99.90
3528;DHT22;1778;47.966;7.854;2023-02-26T04:18:02;0.70;99.90
3528;DHT22;1778;47.966;7.854;2023-02-26T04:19:04;0.70;99.90
3528;DHT22;1778;47.966;7.854;2023-02-26T04:20:06;0.70;99.90
3528;DHT22;1778;47.966;7.854;2023-02-26T04:21:15;0.70;99.90
3528;DHT22;1778;47.966;7.854;2023-02-26T04:22:17;0.80;99.90
3528;DHT22;1778;47.966;7.854;2023-02-26T04:23:19;0.80;99.90
3528;DHT22;1778;47.966;7.854;2023-02-26T04:24:21;0.80;99.90
3528;DHT22;1778;47.966;7.854;2023-02-26T04:25:22;0.70;99.90
3528;DHT22;1778;47.966;7.854;2023-02-26T04:26:25;0.80;99.90
3528;DHT22;1778;47.966;7.854;2023-02-26T04:27:27;0.90;99.90
3528;DHT22;1778;47.966;7.854;2023-02-26T04:28:29;0.90;99.90
3528;DHT22;1778;47.966;7.854;2023-02-26T04:29:30;0.90;99.90
3528;DHT22;1778;47.966;7.854;2023-02-26T04:30:32;0.90;99.90
3528;DHT22;1778;47.966;7.854;2023-02-26T04:31:35;0.90;99.90
3528;DHT22;1778;47.966;7.854;2023-02-26T04:32:37;0.80;99.90
3528;DHT22;1778;47.966;7.854;2023-02-26T04:33:40;0.90;99.90
3528;DHT22;1778;47.966;7.854;2023-02-26T04:34:41;0.90;99.90
3528;DHT22;1778;47.966;7.854;2023-02-26T04:35:43;0.80;99.90
3528;DHT22;1778;47.966;7.854;2023-02-26T04:36:45;0.80;99.90
3528;DHT22;1778;47.966;7.854;2023-02-26T04:37:46;0.80;99.90
3528;DHT22;1778;47.966;7.854;2023-02-26T04:38:48;0.70;99.90
3528;DHT22;1778;47.966;7.854;2023-02-26T04:39:49;0.80;99.90
3528;DHT22;1778;47.966;7.854;2023-02-26T04:40:52;0.80;99.90
3528;DHT22;1778;47.966;7.854;2023-02-26T04:41:53;0.90;99.90
3528;DHT22;1778;47.966;7.854;2023-02-26T04:42:56;0.80;99.90
3528;DHT22;1778;47.966;7.854;2023-02-26T04:44:00;0.80;99.90
3528;DHT22;1778;47.966;7.854;2023-02-26T04:45:04;0.80;99.90
3528;DHT22;1778;47.966;7.854;2023-02-26T04:46:08;0.70;99.90
3528;DHT22;1778;47.966;7.854;2023-02-26T04:47:10;0.70;99.90
3528;DHT22;1778;47.966;7.854;2023-02-26T04:48:12;0.70;99.90
3528;DHT22;1778;47.966;7.854;2023-02-26T04:49:13;0.80;99.90
3528;DHT22;1778;47.966;7.854;2023-02-26T04:50:17;0.80;99.90
3528;DHT22;1778;47.966;7.854;2023-02-26T04:51:22;0.70;99.90
3528;DHT22;1778;47.966;7.854;2023-02-26T04:52:24;0.70;99.90
3528;DHT22;1778;47.966;7.854;2023-02-26T04:53:26;0.70;99.90
3528;DHT22;1778;47.966;7.854;2023-02-26T04:54:29;0.70;99.90
3528;DHT22;1778;47.966;7.854;2023-02-26T04:55:30;0.70;99.90
3528;DHT22;1778;47.966;7.854;2023-02-26T04:56:32;0.80;99.90
3528;DHT22;1778;47.966;7.854;2023-02-26T04:57:35;0.80;99.90
3528;DHT22;1778;47.966;7.854;2023-02-26T04:58:36;0.80;99.90
3528;DHT22;1778;47.966;7.854;2023-02-26T04:59:42;0.80;99.90
3528;DHT22;1778;47.966;7.854;2023-02-26T05:00:49;0.80;99.90
3528;DHT22;1778;47.966;7.854;2023-02-26T05:01:51;0.70;99.90
3528;DHT22;1778;47.966;7.854;2023-02-26T05:02:53;0.70;99.90
3528;DHT22;1778;47.966;7.854;2023-02-26T05:03:55;0.70;99.90
3528;DHT22;1778;47.966;7.854;2023-02-26T05:04:56;0.60;99.90
3528;DHT22;1778;47.966;7.854;2023-02-26T05:05:58;0.60;99.90
3528;DHT22;1778;47.966;7.854;2023-02-26T05:06:59;0.60;99.90
3528;DHT22;1778;47.966;7.854;2023-02-26T05:08:01;0.50;99.90
3528;DHT22;1778;47.966;7.854;2023-02-26T05:09:04;0.50;99.90
3528;DHT22;1778;47.966;7.854;2023-02-26T05:10:06;0.60;99.90
3528;DHT22;1778;47.966;7.854;2023-02-26T05:11:09;0.60;99.90
3528;DHT22;1778;47.966;7.854;2023-02-26T05:12:11;0.50;99.90
3528;DHT22;1778;47.966;7.854;2023-02-26T05:13:12;0.50;99.90
3528;DHT22;1778;47.966;7.854;2023-02-26T05:14:15;0.50;99.90
3528;DHT22;1778;47.966;7.854;2023-02-26T05:15:18;0.50;99.90
3528;DHT22;1778;47.966;7.854;2023-02-26T05:16:20;0.50;99.90
3528;DHT22;1778;47.966;7.854;2023-02-26T05:17:21;0.60;99.90
3528;DHT22;1778;47.966;7.854;2023-02-26T05:18:23;0.50;99.90
3528;DHT22;1778;47.966;7.854;2023-02-26T05:19:25;0.50;99.90
3528;DHT22;1778;47.966;7.854;2023-02-26T05:20:26;0.50;99.90
3528;DHT22;1778;47.966;7.854;2023-02-26T05:21:27;0.50;99.90
3528;DHT22;1778;47.966;7.854;2023-02-26T05:22:29;0.50;99.90
3528;DHT22;1778;47.966;7.854;2023-02-26T05:23:31;0.50;99.90
3528;DHT22;1778;47.966;7.854;2023-02-26T05:24:32;0.50;99.90
3528;DHT22;1778;47.966;7.854;2023-02-26T05:25:35;0.60;99.90
3528;DHT22;1778;47.966;7.854;2023-02-26T05:26:36;0.50;99.90
3528;DHT22;1778;47.966;7.854;2023-02-26T05:27:39;0.40;99.90
3528;DHT22;1778;47.966;7.854;2023-02-26T05:28:43;0.40;99.90
3528;DHT22;1778;47.966;7.854;2023-02-26T05:29:45;0.50;99.90
3528;DHT22;1778;47.966;7.854;2023-02-26T05:30:48;0.50;99.90
3528;DHT22;1778;47.966;7.854;2023-02-26T05:31:49;0.50;99.90
3528;DHT22;1778;47.966;7.854;2023-02-26T05:32:51;0.40;99.90
3528;DHT22;1778;47.966;7.854;2023-02-26T05:33:53;0.40;99.90
3528;DHT22;1778;47.966;7.854;2023-02-26T05:34:54;0.40;99.90
3528;DHT22;1778;47.966;7.854;2023-02-26T05:35:56;0.40;99.90
3528;DHT22;1778;47.966;7.854;2023-02-26T05:36:58;0.40;99.90
3528;DHT22;1778;47.966;7.854;2023-02-26T05:37:59;0.40;99.90
3528;DHT22;1778;47.966;7.854;2023-02-26T05:39:00;0.40;99.90
3528;DHT22;1778;47.966;7.854;2023-02-26T05:40:04;0.40;99.90
3528;DHT22;1778;47.966;7.854;2023-02-26T05:41:06;0.30;99.90
3528;DHT22;1778;47.966;7.854;2023-02-26T05:42:08;0.30;99.90
3528;DHT22;1778;47.966;7.854;2023-02-26T05:43:09;0.30;99.90
3528;DHT22;1778;47.966;7.854;2023-02-26T05:44:11;0.30;99.90
3528;DHT22;1778;47.966;7.854;2023-02-26T05:45:13;0.30;99.90
3528;DHT22;1778;47.966;7.854;2023-02-26T05:46:14;0.30;99.90
3528;DHT22;1778;47.966;7.854;2023-02-26T05:47:16;0.30;99.90
3528;DHT22;1778;47.966;7.854;2023-02-26T05:48:18;0.40;99.90
3528;DHT22;1778;47.966;7.854;2023-02-26T05:49:19;0.30;99.90
3528;DHT22;1778;47.966;7.854;2023-02-26T05:50:21;0.30;99.90
3528;DHT22;1778;47.966;7.854;2023-02-26T05:51:22;0.30;99.90
3528;DHT22;1778;47.966;7.854;2023-02-26T05:52:24;0.20;99.90
3528;DHT22;1778;47.966;7.854;2023-02-26T05:53:25;0.20;99.90
3528;DHT22;1778;47.966;7.854;2023-02-26T05:54:27;0.20;99.90
3528;DHT22;1778;47.966;7.854;2023-02-26T05:55:28;0.20;99.90
3528;DHT22;1778;47.966;7.854;2023-02-26T05:56:30;0.20;99.90
3528;DHT22;1778;47.966;7.854;2023-02-26T05:57:31;0.20;99.90
3528;DHT22;1778;47.966;7.854;2023-02-26T05:58:33;0.30;99.90
3528;DHT22;1778;47.966;7.854;2023-02-26T05:59:34;0.30;99.90
3528;DHT22;1778;47.966;7.854;2023-02-26T06:00:36;0.20;99.90
3528;DHT22;1778;47.966;7.854;2023-02-26T06:01:38;0.30;99.90
3528;DHT22;1778;47.966;7.854;2023-02-26T06:02:40;0.30;99.90
3528;DHT22;1778;47.966;7.854;2023-02-26T06:03:42;0.30;99.90
3528;DHT22;1778;47.966;7.854;2023-02-26T06:04:44;0.30;99.90
3528;DHT22;1778;47.966;7.854;2023-02-26T06:05:46;0.30;99.90
3528;DHT22;1778;47.966;7.854;2023-02-26T06:06:48;0.20;99.90
3528;DHT22;1778;47.966;7.854;2023-02-26T06:07:49;0.20;99.90
3528;DHT22;1778;47.966;7.854;2023-02-26T06:08:51;0.20;99.90
3528;DHT22;1778;47.966;7.854;2023-02-26T06:09:52;0.30;99.90
3528;DHT22;1778;47.966;7.854;2023-02-26T06:10:54;0.30;99.90
3528;DHT22;1778;47.966;7.854;2023-02-26T06:11:55;0.20;99.90
3528;DHT22;1778;47.966;7.854;2023-02-26T06:12:57;0.20;99.90
3528;DHT22;1778;47.966;7.854;2023-02-26T06:13:59;0.10;99.90
3528;DHT22;1778;47.966;7.854;2023-02-26T06:15:01;0.20;99.90
3528;DHT22;1778;47.966;7.854;2023-02-26T06:16:03;0.10;99.90
3528;DHT22;1778;47.966;7.854;2023-02-26T06:17:05;0.10;99.90
3528;DHT22;1778;47.966;7.854;2023-02-26T06:18:07;0.10;99.90
3528;DHT22;1778;47.966;7.854;2023-02-26T06:19:09;0.10;99.90
3528;DHT22;1778;47.966;7.854;2023-02-26T06:20:11;0.00;99.90
3528;DHT22;1778;47.966;7.854;2023-02-26T06:21:13;0.00;99.90
3528;DHT22;1778;47.966;7.854;2023-02-26T06:22:15;0.00;99.90
3528;DHT22;1778;47.966;7.854;2023-02-26T06:23:16;0.00;99.90
3528;DHT22;1778;47.966;7.854;2023-02-26T06:24:18;0.00;99.90
3528;DHT22;1778;47.966;7.854;2023-02-26T06:25:19;0.10;99.90
3528;DHT22;1778;47.966;7.854;2023-02-26T06:26:21;0.20;99.90
3528;DHT22;1778;47.966;7.854;2023-02-26T06:27:24;0.10;99.90
3528;DHT22;1778;47.966;7.854;2023-02-26T06:28:26;0.20;99.90
3528;DHT22;1778;47.966;7.854;2023-02-26T06:29:27;0.10;99.90
3528;DHT22;1778;47.966;7.854;2023-02-26T06:30:29;0.10;99.90
3528;DHT22;1778;47.966;7.854;2023-02-26T06:31:31;0.10;99.90
3528;DHT22;1778;47.966;7.854;2023-02-26T06:32:33;0.10;99.90
3528;DHT22;1778;47.966;7.854;2023-02-26T06:33:34;0.10;99.90
3528;DHT22;1778;47.966;7.854;2023-02-26T06:34:36;0.10;99.90
3528;DHT22;1778;47.966;7.854;2023-02-26T06:35:37;0.20;99.90
3528;DHT22;1778;47.966;7.854;2023-02-26T06:36:39;0.10;99.90
3528;DHT22;1778;47.966;7.854;2023-02-26T06:37:41;0.10;99.90
3528;DHT22;1778;47.966;7.854;2023-02-26T06:38:42;0.10;99.90
3528;DHT22;1778;47.966;7.854;2023-02-26T06:39:45;0.20;99.90
3528;DHT22;1778;47.966;7.854;2023-02-26T06:40:47;0.10;99.90
3528;DHT22;1778;47.966;7.854;2023-02-26T06:41:49;0.10;99.90
3528;DHT22;1778;47.966;7.854;2023-02-26T06:42:50;0.20;99.90
3528;DHT22;1778;47.966;7.854;2023-02-26T06:43:52;0.20;99.90
3528;DHT22;1778;47.966;7.854;2023-02-26T06:44:54;0.20;99.90
3528;DHT22;1778;47.966;7.854;2023-02-26T06:45:58;0.20;99.90
3528;DHT22;1778;47.966;7.854;2023-02-26T06:47:00;0.10;99.90
3528;DHT22;1778;47.966;7.854;2023-02-26T06:48:01;0.10;99.90
3528;DHT22;1778;47.966;7.854;2023-02-26T06:49:03;0.10;99.90
3528;DHT22;1778;47.966;7.854;2023-02-26T06:50:06;0.20;99.90
3528;DHT22;1778;47.966;7.854;2023-02-26T06:51:07;0.20;99.90
3528;DHT22;1778;47.966;7.854;2023-02-26T06:52:09;0.30;99.90
3528;DHT22;1778;47.966;7.854;2023-02-26T06:53:11;0.20;99.90
3528;DHT22;1778;47.966;7.854;2023-02-26T06:54:12;0.20;99.90
3528;DHT22;1778;47.966;7.854;2023-02-26T06:55:14;0.20;99.90
3528;DHT22;1778;47.966;7.854;2023-02-26T06:56:15;0.30;99.90
3528;DHT22;1778;47.966;7.854;2023-02-26T06:57:17;0.40;99.90
3528;DHT22;1778;47.966;7.854;2023-02-26T06:58:19;0.40;99.90
3528;DHT22;1778;47.966;7.854;2023-02-26T06:59:21;0.40;99.90
3528;DHT22;1778;47.966;7.854;2023-02-26T07:00:23;0.40;99.90
3528;DHT22;1778;47.966;7.854;2023-02-26T07:01:26;0.40;99.90
3528;DHT22;1778;47.966;7.854;2023-02-26T07:02:27;0.50;99.90
3528;DHT22;1778;47.966;7.854;2023-02-26T07:03:29;0.50;99.90
3528;DHT22;1778;47.966;7.854;2023-02-26T07:04:31;0.50;99.90
3528;DHT22;1778;47.966;7.854;2023-02-26T07:05:33;0.60;99.90
3528;DHT22;1778;47.966;7.854;2023-02-26T07:06:35;0.50;99.90
3528;DHT22;1778;47.966;7.854;2023-02-26T07:07:36;0.60;99.90
3528;DHT22;1778;47.966;7.854;2023-02-26T07:08:38;0.60;99.90
3528;DHT22;1778;47.966;7.854;2023-02-26T07:09:40;0.60;99.90
3528;DHT22;1778;47.966;7.854;2023-02-26T07:10:43;0.60;99.90
3528;DHT22;1778;47.966;7.854;2023-02-26T07:11:47;0.60;99.90
3528;DHT22;1778;47.966;7.854;2023-02-26T07:12:49;0.60;99.90
3528;DHT22;1778;47.966;7.854;2023-02-26T07:13:50;0.60;99.90
3528;DHT22;1778;47.966;7.854;2023-02-26T07:14:52;0.70;99.90
3528;DHT22;1778;47.966;7.854;2023-02-26T07:15:53;0.70;99.90
3528;DHT22;1778;47.966;7.854;2023-02-26T07:16:55;0.70;99.90
3528;DHT22;1778;47.966;7.854;2023-02-26T07:17:57;0.80;99.90
3528;DHT22;1778;47.966;7.854;2023-02-26T07:19:00;0.80;99.90
3528;DHT22;1778;47.966;7.854;2023-02-26T07:20:02;0.80;99.90
3528;DHT22;1778;47.966;7.854;2023-02-26T07:21:06;0.80;99.90
3528;DHT22;1778;47.966;7.854;2023-02-26T07:22:08;0.90;99.90
3528;DHT22;1778;47.966;7.854;2023-02-26T07:23:10;0.90;99.90
3528;DHT22;1778;47.966;7.854;2023-02-26T07:24:12;0.90;99.90
3528;DHT22;1778;47.966;7.854;2023-02-26T07:25:14;0.90;99.90
3528;DHT22;1778;47.966;7.854;2023-02-26T07:26:15;0.90;99.90
3528;DHT22;1778;47.966;7.854;2023-02-26T07:27:17;0.90;99.90
3528;DHT22;1778;47.966;7.854;2023-02-26T07:28:19;0.90;99.90
3528;DHT22;1778;47.966;7.854;2023-02-26T07:29:21;0.90;99.90
3528;DHT22;1778;47.966;7.854;2023-02-26T07:30:23;0.90;99.90
3528;DHT22;1778;47.966;7.854;2023-02-26T07:31:24;0.90;99.90
3528;DHT22;1778;47.966;7.854;2023-02-26T07:32:26;0.90;99.90
3528;DHT22;1778;47.966;7.854;2023-02-26T07:33:27;0.90;99.90
3528;DHT22;1778;47.966;7.854;2023-02-26T07:34:29;0.90;99.90
3528;DHT22;1778;47.966;7.854;2023-02-26T07:35:31;0.90;99.90
3528;DHT22;1778;47.966;7.854;2023-02-26T07:36:33;0.90;99.90
3528;DHT22;1778;47.966;7.854;2023-02-26T07:37:34;0.90;99.90
3528;DHT22;1778;47.966;7.854;2023-02-26T07:38:36;0.90;99.90
3528;DHT22;1778;47.966;7.854;2023-02-26T07:39:38;0.80;99.90
3528;DHT22;1778;47.966;7.854;2023-02-26T07:40:40;0.80;99.90
3528;DHT22;1778;47.966;7.854;2023-02-26T07:41:41;0.70;99.90
3528;DHT22;1778;47.966;7.854;2023-02-26T07:42:48;0.80;99.90
3528;DHT22;1778;47.966;7.854;2023-02-26T07:43:49;0.80;99.90
3528;DHT22;1778;47.966;7.854;2023-02-26T07:44:51;0.80;99.90
3528;DHT22;1778;47.966;7.854;2023-02-26T07:45:53;0.80;99.90
3528;DHT22;1778;47.966;7.854;2023-02-26T07:46:54;0.70;99.90
3528;DHT22;1778;47.966;7.854;2023-02-26T07:47:56;0.80;99.90
3528;DHT22;1778;47.966;7.854;2023-02-26T07:48:58;0.80;99.90
3528;DHT22;1778;47.966;7.854;2023-02-26T07:50:00;0.80;99.90
3528;DHT22;1778;47.966;7.854;2023-02-26T07:51:03;0.90;99.90
3528;DHT22;1778;47.966;7.854;2023-02-26T07:52:05;0.90;99.90
3528;DHT22;1778;47.966;7.854;2023-02-26T07:53:08;0.90;99.90
3528;DHT22;1778;47.966;7.854;2023-02-26T07:54:10;0.90;99.90
3528;DHT22;1778;47.966;7.854;2023-02-26T07:55:12;0.90;99.90